Time;durP1;ratioP1;P1;durP2;ratioP2;P2;SDS_P1;SDS_P2;PMS_P1;PMS_P2;Temp;Humidity;BMP_temperature;BMP_pressure;BME280_temperature;BME280_humidity;BME280_pressure;Samples;Min_cycle;Max_cycle;Signal;HPM_P1;HPM_P2
2021/09/22 00:02:21;;;;;;;8.00;6.30;;;14.80;99.90;;;;;;5078461;28;20185;-63
2021/09/22 00:04:47;;;;;;;8.50;6.57;;;14.70;99.90;;;;;;5096293;28;20944;-63
2021/09/22 00:07:13;;;;;;;12.23;7.63;;;14.70;99.90;;;;;;5096300;28;20173;-63
2021/09/22 00:09:39;;;;;;;9.23;6.50;;;14.70;99.90;;;;;;5078060;28;20429;-63
2021/09/22 00:12:05;;;;;;;7.33;6.20;;;14.70;99.90;;;;;;5096686;28;20413;-63
2021/09/22 00:14:30;;;;;;;6.40;5.33;;;14.70;99.90;;;;;;5096130;28;20192;-63
2021/09/22 00:16:56;;;;;;;8.83;6.60;;;14.70;99.90;;;;;;5077735;28;20243;-63
2021/09/22 00:19:21;;;;;;;9.40;7.20;;;14.60;99.90;;;;;;5076655;28;20242;-63
2021/09/22 00:21:47;;;;;;;11.20;7.20;;;14.60;99.90;;;;;;5077912;28;20247;-63
2021/09/22 00:24:13;;;;;;;9.07;6.60;;;14.60;99.90;;;;;;5096030;28;20718;-66
2021/09/22 00:26:38;;;;;;;8.70;6.80;;;14.50;99.90;;;;;;5096220;28;20630;-63
2021/09/22 00:29:04;;;;;;;8.10;6.20;;;14.50;99.90;;;;;;5095913;28;20196;-63
2021/09/22 00:31:34;;;;;;;10.00;6.50;;;14.50;99.90;;;;;;5096126;28;20429;-63
2021/09/22 00:34:00;;;;;;;8.30;6.30;;;14.50;99.90;;;;;;5095802;28;20204;-64
2021/09/22 00:36:26;;;;;;;7.63;6.13;;;14.50;99.90;;;;;;5096049;28;20417;-63
2021/09/22 00:38:51;;;;;;;9.97;7.50;;;14.50;99.90;;;;;;5095667;28;20188;-64
2021/09/22 00:41:17;;;;;;;9.63;6.57;;;14.50;99.90;;;;;;5077367;28;20319;-63
2021/09/22 00:43:42;;;;;;;7.47;6.43;;;14.50;99.90;;;;;;5095621;28;20676;-63
2021/09/22 00:46:08;;;;;;;9.63;6.70;;;14.50;99.90;;;;;;5095811;28;20184;-63
2021/09/22 00:48:35;;;;;;;8.30;6.60;;;14.50;99.90;;;;;;5095583;28;20550;-64
2021/09/22 00:51:04;;;;;;;11.30;7.10;;;14.40;99.90;;;;;;5095585;28;20193;-63
2021/09/22 00:53:30;;;;;;;9.70;7.40;;;14.40;99.90;;;;;;5095420;28;20437;-63
2021/09/22 00:55:57;;;;;;;8.23;6.30;;;14.40;99.90;;;;;;5095224;28;20948;-63
2021/09/22 00:58:23;;;;;;;8.23;7.07;;;14.40;99.90;;;;;;5077268;28;20405;-63
2021/09/22 01:00:49;;;;;;;9.23;6.83;;;14.40;99.90;;;;;;5095292;28;20542;-63
2021/09/22 01:03:14;;;;;;;8.30;7.10;;;14.40;99.90;;;;;;5095215;28;20425;-63
2021/09/22 01:05:40;;;;;;;10.13;7.37;;;14.30;99.90;;;;;;5095203;28;20226;-63
2021/09/22 01:08:10;;;;;;;11.53;7.17;;;14.30;99.90;;;;;;5095172;28;20169;-63
2021/09/22 01:10:36;;;;;;;10.07;7.20;;;14.30;99.90;;;;;;5095273;28;20500;-63
2021/09/22 01:13:02;;;;;;;10.60;7.90;;;14.30;99.90;;;;;;5076759;28;20408;-63
2021/09/22 01:15:33;;;;;;;10.43;7.70;;;14.20;99.90;;;;;;5076741;28;20802;-63
2021/09/22 01:18:00;;;;;;;10.20;7.97;;;14.20;99.90;;;;;;5094858;28;20346;-63
2021/09/22 01:20:29;;;;;;;12.70;8.17;;;14.20;99.90;;;;;;5094624;28;20447;-63
2021/09/22 01:22:57;;;;;;;9.10;7.50;;;14.20;99.90;;;;;;5094880;28;20397;-63
2021/09/22 01:25:22;;;;;;;9.80;7.13;;;14.10;99.90;;;;;;5076590;28;20523;-63
2021/09/22 01:27:51;;;;;;;10.50;7.27;;;14.10;99.90;;;;;;5094749;28;20964;-63
2021/09/22 01:30:18;;;;;;;14.07;7.73;;;14.10;99.90;;;;;;5076061;28;20193;-64
2021/09/22 01:32:53;;;;;;;10.07;7.70;;;14.10;99.90;;;;;;5076415;28;20424;-63
2021/09/22 01:35:20;;;;;;;9.60;7.47;;;14.00;99.90;;;;;;5094644;28;20424;-63
2021/09/22 01:37:46;;;;;;;9.03;7.23;;;14.00;99.90;;;;;;5094585;28;20506;-63
2021/09/22 01:40:12;;;;;;;11.60;8.57;;;13.90;99.90;;;;;;5094479;28;20465;-63
2021/09/22 01:42:39;;;;;;;11.13;8.33;;;13.90;99.90;;;;;;5095067;28;20495;-63
2021/09/22 01:45:07;;;;;;;11.87;8.13;;;13.90;99.90;;;;;;5076251;28;20515;-63
2021/09/22 01:47:32;;;;;;;10.50;7.60;;;13.90;99.90;;;;;;5094906;28;20399;-63
2021/09/22 01:50:08;;;;;;;12.40;7.77;;;13.80;99.90;;;;;;5076191;28;20442;-63
2021/09/22 01:52:34;;;;;;;9.30;8.03;;;13.80;99.90;;;;;;5094858;28;20180;-63
2021/09/22 01:55:00;;;;;;;11.50;8.77;;;13.80;99.90;;;;;;5094215;28;20420;-63
2021/09/22 01:57:26;;;;;;;9.17;7.40;;;13.80;99.90;;;;;;5094782;28;20413;-63
2021/09/22 01:59:52;;;;;;;14.57;8.10;;;13.70;99.90;;;;;;5094047;28;20481;-63
2021/09/22 02:02:18;;;;;;;9.33;8.00;;;13.70;99.90;;;;;;5094189;28;20437;-63
2021/09/22 02:04:43;;;;;;;14.13;7.50;;;13.70;99.90;;;;;;5094064;28;20200;-63
2021/09/22 02:07:09;;;;;;;9.20;7.10;;;13.70;99.90;;;;;;5094592;28;20176;-63
2021/09/22 02:09:35;;;;;;;10.77;8.93;;;13.70;99.90;;;;;;5094037;28;20184;-63
2021/09/22 02:12:01;;;;;;;10.20;7.50;;;13.70;99.90;;;;;;5093896;28;20417;-63
2021/09/22 02:14:26;;;;;;;12.13;8.30;;;13.70;99.90;;;;;;5093965;28;20240;-63
2021/09/22 02:16:53;;;;;;;11.80;8.20;;;13.70;99.90;;;;;;5093726;28;20433;-63
2021/09/22 02:19:19;;;;;;;11.37;8.30;;;13.60;99.90;;;;;;5093955;28;20271;-63
2021/09/22 02:21:45;;;;;;;12.00;8.77;;;13.60;99.90;;;;;;5094104;28;20480;-63
2021/09/22 02:24:10;;;;;;;10.60;8.67;;;13.60;99.90;;;;;;5093765;28;20966;-63
2021/09/22 02:26:36;;;;;;;10.00;7.33;;;13.60;99.90;;;;;;5093872;28;20515;-63
2021/09/22 02:29:02;;;;;;;11.03;8.13;;;13.60;99.90;;;;;;5093790;28;20188;-63
2021/09/22 02:31:28;;;;;;;9.20;7.63;;;13.60;99.90;;;;;;5094099;28;20176;-63
2021/09/22 02:33:54;;;;;;;12.07;8.00;;;13.60;99.90;;;;;;5093695;28;20400;-64
2021/09/22 02:36:19;;;;;;;11.60;8.77;;;13.60;99.90;;;;;;5093692;28;20188;-63
2021/09/22 02:38:45;;;;;;;11.30;8.77;;;13.60;99.90;;;;;;5075599;28;20661;-63
2021/09/22 02:41:11;;;;;;;11.27;8.33;;;13.60;99.90;;;;;;5093835;28;20278;-63
2021/09/22 02:43:36;;;;;;;11.30;7.80;;;13.60;99.90;;;;;;5097797;28;20705;-63
2021/09/22 02:46:02;;;;;;;13.37;9.70;;;13.50;99.90;;;;;;5097987;28;20176;-63
2021/09/22 02:48:28;;;;;;;11.70;8.80;;;13.50;99.90;;;;;;5097881;28;20199;-63
2021/09/22 02:50:54;;;;;;;10.23;8.00;;;13.50;99.90;;;;;;5079685;28;20180;-63
2021/09/22 02:53:19;;;;;;;13.20;8.50;;;13.50;99.90;;;;;;5097823;28;20183;-63
2021/09/22 02:55:45;;;;;;;12.97;8.13;;;13.50;99.90;;;;;;5097775;28;20173;-63
2021/09/22 02:58:11;;;;;;;9.93;8.10;;;13.50;99.90;;;;;;5097678;28;20178;-63
2021/09/22 03:00:37;;;;;;;14.07;11.20;;;13.50;99.90;;;;;;5097558;28;20536;-64
2021/09/22 03:03:03;;;;;;;11.50;8.70;;;13.50;99.90;;;;;;5097550;28;20172;-63
2021/09/22 03:05:29;;;;;;;11.10;8.10;;;13.50;99.90;;;;;;5079211;28;20196;-63
2021/09/22 03:07:55;;;;;;;11.00;8.63;;;13.50;99.90;;;;;;5097432;28;20379;-63
2021/09/22 03:10:20;;;;;;;12.30;7.50;;;13.50;99.90;;;;;;5097379;28;20470;-65
2021/09/22 03:12:48;;;;;;;11.97;8.33;;;13.50;99.90;;;;;;5079145;28;20188;-63
2021/09/22 03:15:14;;;;;;;10.90;7.83;;;13.50;99.90;;;;;;5097291;28;20204;-63
2021/09/22 03:17:41;;;;;;;10.95;8.30;;;13.50;99.90;;;;;;5097098;28;20474;-63
2021/09/22 03:20:07;;;;;;;11.27;9.32;;;13.50;99.90;;;;;;5097167;28;20261;-63
2021/09/22 03:22:33;;;;;;;12.40;8.10;;;13.50;99.90;;;;;;5097877;28;20533;-63
2021/09/22 03:24:58;;;;;;;10.90;8.33;;;13.50;99.90;;;;;;5078744;28;20413;-63
2021/09/22 03:27:24;;;;;;;12.80;9.20;;;13.50;99.90;;;;;;5079180;28;20185;-63
2021/09/22 03:29:50;;;;;;;11.03;8.47;;;13.50;99.90;;;;;;5096996;28;21108;-63
2021/09/22 03:32:16;;;;;;;12.80;8.97;;;13.50;99.90;;;;;;5097386;28;20416;-63
2021/09/22 03:34:42;;;;;;;11.20;8.50;;;13.50;99.90;;;;;;5089377;28;20693;-63
2021/09/22 03:37:07;;;;;;;12.60;8.23;;;13.40;99.90;;;;;;5075128;28;20181;-63
2021/09/22 03:39:33;;;;;;;13.30;8.90;;;13.40;99.90;;;;;;5076577;28;20418;-63
2021/09/22 03:41:59;;;;;;;9.87;7.87;;;13.40;99.90;;;;;;5076901;28;20665;-63
2021/09/22 03:44:25;;;;;;;11.57;8.07;;;13.40;99.90;;;;;;5076519;28;20193;-63
2021/09/22 03:46:52;;;;;;;11.07;7.63;;;13.40;99.90;;;;;;5075287;28;20185;-64
2021/09/22 03:49:18;;;;;;;12.57;8.07;;;13.50;99.90;;;;;;5076362;28;20197;-64
2021/09/22 03:51:43;;;;;;;9.60;7.83;;;13.50;99.90;;;;;;5075229;28;20415;-63
2021/09/22 03:54:09;;;;;;;10.97;8.30;;;13.50;99.90;;;;;;5076048;28;20432;-63
2021/09/22 03:56:35;;;;;;;9.80;7.73;;;13.60;99.90;;;;;;5074170;28;20226;-63
2021/09/22 03:59:01;;;;;;;10.20;7.23;;;13.60;99.90;;;;;;5073032;28;20208;-63
2021/09/22 04:01:27;;;;;;;9.53;7.67;;;13.60;99.90;;;;;;5073800;28;20678;-65
2021/09/22 04:03:52;;;;;;;13.57;7.72;;;13.60;99.90;;;;;;5076211;28;20430;-64
2021/09/22 04:06:18;;;;;;;8.43;7.13;;;13.60;99.90;;;;;;5082965;28;20200;-65
2021/09/22 04:08:44;;;;;;;8.40;7.30;;;13.60;99.90;;;;;;5084221;28;20196;-65
2021/09/22 04:11:09;;;;;;;9.43;7.60;;;13.60;99.90;;;;;;5066190;28;20204;-63
2021/09/22 04:13:35;;;;;;;9.50;7.20;;;13.60;99.90;;;;;;5084636;28;20193;-65
2021/09/22 04:16:01;;;;;;;10.20;7.87;;;13.60;99.90;;;;;;5083673;28;20677;-63
2021/09/22 04:18:27;;;;;;;8.50;7.00;;;13.60;99.90;;;;;;5090097;28;20172;-63
2021/09/22 04:20:52;;;;;;;9.97;7.57;;;13.60;99.90;;;;;;5067784;28;20444;-63
2021/09/22 04:23:18;;;;;;;10.20;8.00;;;13.60;99.90;;;;;;5085140;28;20578;-63
2021/09/22 04:25:44;;;;;;;11.60;7.93;;;13.60;99.90;;;;;;5084531;28;20445;-63
2021/09/22 04:28:09;;;;;;;8.83;6.80;;;13.60;99.90;;;;;;5085968;28;20173;-64
2021/09/22 04:30:35;;;;;;;9.27;8.03;;;13.60;99.90;;;;;;5097589;28;20642;-63
2021/09/22 04:33:02;;;;;;;8.83;7.80;;;13.60;99.90;;;;;;5069890;28;20281;-63
2021/09/22 04:35:28;;;;;;;7.93;7.10;;;13.60;99.90;;;;;;5087142;28;20212;-63
2021/09/22 04:37:54;;;;;;;9.40;7.87;;;13.60;99.90;;;;;;5092487;28;20384;-64
2021/09/22 04:40:20;;;;;;;9.70;7.30;;;13.60;99.90;;;;;;5090889;28;20463;-63
2021/09/22 04:42:45;;;;;;;9.50;7.60;;;13.60;99.90;;;;;;5094470;28;20187;-64
2021/09/22 04:45:11;;;;;;;11.70;7.37;;;13.60;99.90;;;;;;5088487;28;20196;-63
2021/09/22 04:47:37;;;;;;;10.67;7.60;;;13.60;99.90;;;;;;5096652;28;20207;-63
2021/09/22 04:50:05;;;;;;;9.87;7.20;;;13.60;99.90;;;;;;5089795;28;20419;-63
2021/09/22 04:52:31;;;;;;;11.37;7.70;;;13.60;99.90;;;;;;5092362;28;20437;-63
2021/09/22 04:54:57;;;;;;;10.43;8.13;;;13.60;99.90;;;;;;5076007;28;20509;-63
2021/09/22 04:57:22;;;;;;;8.30;7.33;;;13.60;99.90;;;;;;5074174;28;20630;-63
2021/09/22 04:59:48;;;;;;;10.33;8.07;;;13.70;99.90;;;;;;5091419;28;20227;-63
2021/09/22 05:02:14;;;;;;;10.10;7.33;;;13.60;99.90;;;;;;5080888;28;20206;-63
2021/09/22 05:04:40;;;;;;;10.90;5.93;;;13.70;99.90;;;;;;5109084;28;20195;-63
2021/09/22 05:07:06;;;;;;;11.63;6.90;;;13.60;99.90;;;;;;5106666;28;20193;-63
2021/09/22 05:09:32;;;;;;;12.13;7.87;;;13.60;99.90;;;;;;5098276;28;20961;-64
2021/09/22 05:12:00;;;;;;;9.87;7.93;;;13.60;99.90;;;;;;5103681;28;20238;-63
2021/09/22 05:14:26;;;;;;;10.87;6.93;;;13.60;99.90;;;;;;5109697;28;20445;-65
2021/09/22 05:16:51;;;;;;;8.90;7.33;;;13.60;99.90;;;;;;5101495;28;20826;-64
2021/09/22 05:19:19;;;;;;;9.73;7.50;;;13.60;99.90;;;;;;5099039;28;20203;-63
2021/09/22 05:21:45;;;;;;;10.80;7.20;;;13.60;99.90;;;;;;5097322;28;20311;-64
2021/09/22 05:24:10;;;;;;;11.30;8.40;;;13.60;99.90;;;;;;5098969;28;20432;-65
2021/09/22 05:26:36;;;;;;;12.30;8.07;;;13.60;99.90;;;;;;5082579;28;20452;-63
2021/09/22 05:29:02;;;;;;;10.97;8.10;;;13.50;99.90;;;;;;5100074;28;20229;-63
2021/09/22 05:31:28;;;;;;;11.83;7.70;;;13.50;99.90;;;;;;5078424;28;20191;-63
2021/09/22 05:33:53;;;;;;;9.53;7.57;;;13.40;99.90;;;;;;5102256;28;20252;-65
2021/09/22 05:36:19;;;;;;;10.13;7.53;;;13.30;99.90;;;;;;5097600;28;20637;-64
2021/09/22 05:38:44;;;;;;;9.03;7.40;;;13.30;99.90;;;;;;5096813;28;20349;-64
2021/09/22 05:41:10;;;;;;;12.17;8.00;;;13.20;99.90;;;;;;5099566;28;20225;-63
2021/09/22 05:43:36;;;;;;;8.70;7.70;;;13.20;99.90;;;;;;5100202;28;20200;-65
2021/09/22 05:46:01;;;;;;;10.20;7.60;;;13.20;99.90;;;;;;5098011;28;20190;-63
2021/09/22 05:48:27;;;;;;;13.13;8.50;;;13.20;99.90;;;;;;5101194;28;20188;-63
2021/09/22 05:50:52;;;;;;;9.17;7.60;;;13.20;99.90;;;;;;5093752;28;20557;-64
2021/09/22 05:53:19;;;;;;;11.60;7.80;;;13.10;99.90;;;;;;5088885;28;20252;-65
2021/09/22 05:55:45;;;;;;;9.82;7.75;;;13.10;99.90;;;;;;5095062;28;20275;-64
2021/09/22 05:58:15;;;;;;;10.70;7.77;;;13.10;99.90;;;;;;5082346;28;20317;-65
2021/09/22 06:00:44;;;;;;;10.37;7.97;;;13.10;99.90;;;;;;5091472;28;20314;-63
2021/09/22 06:03:10;;;;;;;16.77;10.05;;;13.10;99.90;;;;;;5095345;28;20426;-63
2021/09/22 06:05:36;;;;;;;14.03;9.20;;;13.10;99.90;;;;;;5091845;28;20193;-63
2021/09/22 06:08:02;;;;;;;17.77;12.52;;;13.20;99.90;;;;;;5093479;28;20417;-63
2021/09/22 06:10:28;;;;;;;15.73;10.00;;;13.20;99.90;;;;;;5090569;28;20254;-65
2021/09/22 06:12:53;;;;;;;18.73;10.33;;;13.20;99.90;;;;;;5070183;28;20207;-62
2021/09/22 06:15:19;;;;;;;13.53;9.17;;;13.20;99.90;;;;;;5089879;28;20730;-64
2021/09/22 06:17:45;;;;;;;14.50;9.20;;;13.20;99.90;;;;;;5095905;28;20227;-63
2021/09/22 06:20:10;;;;;;;12.17;8.83;;;13.20;99.90;;;;;;5082585;28;20231;-65
2021/09/22 06:22:37;;;;;;;16.80;8.63;;;13.30;99.90;;;;;;5085317;28;20188;-63
2021/09/22 06:25:03;;;;;;;11.50;8.53;;;13.30;99.90;;;;;;5067349;28;20706;-63
2021/09/22 06:27:29;;;;;;;17.30;10.20;;;13.30;99.90;;;;;;5064235;28;20437;-62
2021/09/22 06:29:54;;;;;;;13.40;9.63;;;13.30;99.90;;;;;;5067242;28;20346;-63
2021/09/22 06:32:20;;;;;;;13.83;9.30;;;13.30;99.90;;;;;;5086554;28;20279;-64
2021/09/22 06:34:46;;;;;;;11.00;8.83;;;13.30;99.90;;;;;;5082375;28;20204;-62
2021/09/22 06:37:12;;;;;;;10.63;8.67;;;13.40;99.90;;;;;;5063197;28;20555;-63
2021/09/22 06:39:38;;;;;;;13.43;9.27;;;13.30;99.90;;;;;;5084617;28;20203;-64
2021/09/22 06:42:03;;;;;;;9.83;8.60;;;13.40;99.90;;;;;;5068617;28;20528;-64
2021/09/22 06:44:29;;;;;;;9.73;8.27;;;13.50;99.90;;;;;;5066870;28;21133;-63
2021/09/22 06:46:55;;;;;;;14.77;9.17;;;13.50;99.90;;;;;;5087335;28;20180;-63
2021/09/22 06:49:21;;;;;;;13.07;8.00;;;13.60;99.90;;;;;;5085187;28;20961;-63
2021/09/22 06:51:46;;;;;;;13.03;9.93;;;13.70;99.90;;;;;;5082985;28;20649;-65
2021/09/22 06:54:12;;;;;;;13.67;8.00;;;13.70;99.90;;;;;;5062381;28;20192;-64
2021/09/22 06:56:37;;;;;;;10.67;8.17;;;13.80;99.90;;;;;;5088971;28;20652;-64
2021/09/22 06:59:03;;;;;;;12.73;8.43;;;13.90;99.90;;;;;;5090684;28;20204;-64
2021/09/22 07:01:29;;;;;;;11.47;8.90;;;13.90;99.90;;;;;;5088730;28;20246;-64
2021/09/22 07:03:55;;;;;;;13.77;9.77;;;13.90;99.90;;;;;;5091706;28;20249;-64
2021/09/22 07:06:20;;;;;;;12.67;8.50;;;14.00;99.90;;;;;;5078897;28;20733;-64
2021/09/22 07:08:46;;;;;;;11.80;9.40;;;14.00;99.90;;;;;;5087223;28;20200;-65
2021/09/22 07:11:11;;;;;;;10.60;8.47;;;14.00;99.90;;;;;;5088585;28;20189;-64
2021/09/22 07:13:37;;;;;;;11.00;8.70;;;14.00;99.90;;;;;;5086547;28;20204;-64
2021/09/22 07:16:05;;;;;;;15.93;9.57;;;14.00;99.90;;;;;;5089262;28;20274;-64
2021/09/22 07:18:30;;;;;;;12.07;9.13;;;14.00;99.90;;;;;;5097854;28;20440;-64
2021/09/22 07:20:56;;;;;;;10.20;8.67;;;14.00;99.90;;;;;;5087181;28;20532;-65
2021/09/22 07:23:21;;;;;;;11.50;8.70;;;14.00;99.90;;;;;;5083771;28;20176;-66
2021/09/22 07:25:47;;;;;;;13.20;9.20;;;14.00;99.90;;;;;;5064002;28;20218;-63
2021/09/22 07:28:13;;;;;;;12.50;9.17;;;14.00;99.90;;;;;;5082542;28;20183;-64
2021/09/22 07:30:39;;;;;;;12.77;8.70;;;14.00;99.90;;;;;;5082200;28;20189;-64
2021/09/22 07:33:06;;;;;;;13.87;9.67;;;14.00;99.90;;;;;;5081561;28;20257;-65
2021/09/22 07:35:32;;;;;;;13.43;8.80;;;14.00;99.90;;;;;;5084660;28;20622;-64
2021/09/22 07:37:58;;;;;;;12.80;9.93;;;14.00;99.90;;;;;;5083694;28;20970;-66
2021/09/22 07:40:23;;;;;;;11.80;9.07;;;14.10;99.90;;;;;;5080370;28;20843;-64
2021/09/22 07:42:49;;;;;;;11.77;8.80;;;14.10;99.90;;;;;;5085405;28;20997;-64
2021/09/22 07:45:16;;;;;;;13.00;8.83;;;14.10;99.90;;;;;;5084411;28;20208;-64
2021/09/22 07:47:42;;;;;;;13.07;9.00;;;14.20;99.90;;;;;;5086999;28;20185;-66
2021/09/22 07:50:09;;;;;;;12.60;8.37;;;14.20;99.90;;;;;;5089048;28;20456;-64
2021/09/22 07:52:36;;;;;;;12.30;8.97;;;14.20;99.90;;;;;;5091778;28;20473;-64
2021/09/22 07:55:04;;;;;;;12.60;9.80;;;14.20;99.90;;;;;;5093824;28;20433;-64
2021/09/22 07:57:30;;;;;;;17.03;9.50;;;14.20;99.90;;;;;;5088339;28;20432;-64
2021/09/22 07:59:56;;;;;;;16.17;10.30;;;14.30;99.90;;;;;;5090972;28;20474;-64
2021/09/22 08:02:22;;;;;;;14.40;9.80;;;14.30;99.90;;;;;;5069926;28;20510;-65
2021/09/22 08:04:48;;;;;;;13.17;9.37;;;14.30;99.90;;;;;;5069338;28;20826;-65
2021/09/22 08:07:15;;;;;;;10.77;9.00;;;14.20;99.90;;;;;;5081217;28;20294;-64
2021/09/22 08:09:40;;;;;;;12.60;9.90;;;14.20;99.90;;;;;;5075482;28;20980;-64
2021/09/22 08:12:06;;;;;;;11.90;9.30;;;14.20;99.90;;;;;;5089830;28;20407;-63
2021/09/22 08:14:34;;;;;;;14.07;10.52;;;14.30;99.90;;;;;;5092779;28;20442;-65
2021/09/22 08:17:00;;;;;;;13.60;10.70;;;14.30;99.90;;;;;;5090006;28;20270;-65
2021/09/22 08:19:27;;;;;;;14.83;10.87;;;14.30;99.90;;;;;;5092635;28;22360;-66
2021/09/22 08:21:54;;;;;;;12.37;10.20;;;14.30;99.90;;;;;;5103355;28;21027;-64
2021/09/22 08:24:19;;;;;;;13.20;10.40;;;14.30;99.90;;;;;;5074025;28;20503;-64
2021/09/22 08:26:45;;;;;;;15.67;11.03;;;14.30;99.90;;;;;;5058318;28;20443;-64
2021/09/22 08:29:12;;;;;;;15.73;10.67;;;14.40;99.90;;;;;;5093163;28;20200;-61
2021/09/22 08:31:38;;;;;;;12.70;10.30;;;14.40;99.90;;;;;;5091792;28;20848;-60
2021/09/22 08:34:03;;;;;;;13.20;10.80;;;14.40;99.90;;;;;;5098185;28;20499;-59
2021/09/22 08:36:29;;;;;;;15.23;10.87;;;14.40;99.90;;;;;;5093422;28;20433;-59
2021/09/22 08:38:55;;;;;;;17.60;12.20;;;14.50;99.90;;;;;;5099916;28;20196;-64
2021/09/22 08:41:20;;;;;;;13.97;11.50;;;14.50;99.90;;;;;;5098967;28;20890;-63
2021/09/22 08:43:46;;;;;;;15.97;11.23;;;14.50;99.90;;;;;;5098798;28;20196;-64
2021/09/22 08:46:12;;;;;;;13.07;10.50;;;14.50;99.90;;;;;;5091756;28;20184;-59
2021/09/22 08:48:40;;;;;;;18.07;12.10;;;14.40;99.90;;;;;;5092647;28;20469;-59
2021/09/22 08:51:06;;;;;;;17.90;12.33;;;14.40;99.90;;;;;;5100525;28;20433;-63
2021/09/22 08:53:32;;;;;;;16.33;11.10;;;14.40;99.90;;;;;;5096043;28;20464;-64
2021/09/22 08:55:57;;;;;;;19.73;12.93;;;14.40;99.90;;;;;;5089928;28;20176;-65
2021/09/22 08:58:23;;;;;;;15.53;12.20;;;14.40;99.90;;;;;;5087081;28;20176;-63
2021/09/22 09:00:49;;;;;;;16.00;11.20;;;14.30;99.90;;;;;;5106792;28;20642;-63
2021/09/22 09:03:40;;;;;;;17.70;12.00;;;14.30;99.90;;;;;;5089500;28;20184;-62
2021/09/22 09:06:33;;;;;;;18.13;11.70;;;14.30;99.90;;;;;;5094665;28;20452;-63
2021/09/22 09:09:00;;;;;;;16.17;11.37;;;14.30;99.90;;;;;;5071862;28;20828;-60
2021/09/22 09:11:32;;;;;;;20.20;11.87;;;14.20;99.90;;;;;;5070614;28;20436;-62
2021/09/22 09:14:00;;;;;;;15.47;12.23;;;14.10;99.90;;;;;;5090323;28;20456;-67
2021/09/22 09:16:44;;;;;;;19.20;13.70;;;14.10;99.90;;;;;;5086746;28;20549;-65
2021/09/22 09:19:22;;;;;;;19.83;12.20;;;14.10;99.90;;;;;;5093493;28;21238;-61
2021/09/22 09:21:59;;;;;;;23.13;12.90;;;14.10;99.90;;;;;;5085767;28;20488;-62
2021/09/22 09:24:47;;;;;;;17.73;13.10;;;14.10;99.90;;;;;;5094783;28;20808;-61
2021/09/22 09:27:18;;;;;;;17.50;12.20;;;14.10;99.90;;;;;;5081280;28;20948;-62
2021/09/22 09:29:45;;;;;;;17.40;12.17;;;14.10;99.90;;;;;;5087044;28;20465;-65
2021/09/22 09:32:30;;;;;;;20.83;14.00;;;14.00;99.90;;;;;;5083031;28;20641;-62
2021/09/22 09:35:03;;;;;;;22.23;18.03;;;14.00;99.90;;;;;;5080949;28;20897;-62
2021/09/22 09:37:45;;;;;;;20.60;15.17;;;14.00;99.90;;;;;;5080721;28;20820;-62
2021/09/22 09:40:37;;;;;;;18.23;12.57;;;14.00;99.90;;;;;;5084510;28;20810;-65
2021/09/22 09:43:09;;;;;;;18.43;13.33;;;13.90;99.90;;;;;;5081187;28;20420;-64
2021/09/22 09:45:42;;;;;;;17.83;13.10;;;13.90;99.90;;;;;;5080486;28;20486;-66
2021/09/22 09:48:12;;;;;;;22.87;13.23;;;13.90;99.90;;;;;;5063920;28;20433;-62
2021/09/22 09:50:47;;;;;;;26.77;16.70;;;13.90;99.90;;;;;;5059119;28;20834;-64
2021/09/22 09:53:27;;;;;;;19.47;13.40;;;13.90;99.90;;;;;;5077774;28;21002;-66
2021/09/22 09:55:56;;;;;;;20.00;14.00;;;13.80;99.90;;;;;;5060263;28;20440;-65
2021/09/22 09:58:26;;;;;;;19.40;14.13;;;13.80;99.90;;;;;;5080866;28;20425;-64
2021/09/22 10:00:54;;;;;;;22.67;14.27;;;13.70;99.90;;;;;;5061861;28;20795;-64
2021/09/22 10:03:22;;;;;;;19.08;12.30;;;13.70;99.90;;;;;;5085799;28;20429;-62
2021/09/22 10:05:50;;;;;;;19.10;13.17;;;13.70;99.90;;;;;;5083206;28;20264;-62
2021/09/22 10:08:17;;;;;;;20.93;13.80;;;13.70;99.90;;;;;;5085670;28;20409;-65
2021/09/22 10:10:45;;;;;;;23.50;14.80;;;13.70;99.90;;;;;;5083404;28;20588;-61
2021/09/22 10:13:12;;;;;;;18.43;13.03;;;13.70;99.90;;;;;;5061445;28;20421;-61
2021/09/22 10:15:40;;;;;;;19.17;13.53;;;13.70;99.90;;;;;;5083055;28;20445;-65
2021/09/22 10:18:07;;;;;;;17.48;12.68;;;13.70;99.90;;;;;;5084415;28;20870;-61
2021/09/22 10:20:34;;;;;;;22.67;14.50;;;13.70;99.90;;;;;;5084058;28;20711;-65
2021/09/22 10:23:00;;;;;;;20.70;13.43;;;13.70;99.90;;;;;;5084299;28;20421;-65
2021/09/22 10:25:26;;;;;;;19.73;14.03;;;13.70;99.90;;;;;;5085355;28;20980;-64
2021/09/22 10:27:52;;;;;;;18.30;14.20;;;13.70;99.90;;;;;;5083840;28;20618;-65
2021/09/22 10:30:44;;;;;;;21.13;14.20;;;13.70;99.90;;;;;;5074109;28;20452;-62
2021/09/22 10:33:28;;;;;;;16.83;12.30;;;13.70;99.90;;;;;;5072475;28;20764;-61
2021/09/22 10:35:58;;;;;;;17.60;12.93;;;13.70;99.90;;;;;;5076070;28;20435;-63
2021/09/22 10:38:26;;;;;;;18.40;13.02;;;13.70;99.90;;;;;;5075921;28;20426;-65
2021/09/22 10:41:00;;;;;;;16.97;12.47;;;13.60;99.90;;;;;;5078336;28;20219;-65
2021/09/22 10:43:28;;;;;;;17.30;12.52;;;13.60;99.90;;;;;;5074060;28;20477;-61
2021/09/22 10:46:03;;;;;;;16.98;12.80;;;13.60;99.90;;;;;;5058107;28;20271;-64
2021/09/22 10:48:29;;;;;;;21.47;14.40;;;13.60;99.90;;;;;;5075438;28;20176;-61
2021/09/22 10:50:56;;;;;;;18.40;13.40;;;13.60;99.90;;;;;;5080319;28;20551;-61
2021/09/22 10:53:30;;;;;;;19.47;13.87;;;13.50;99.90;;;;;;5083614;28;20191;-64
2021/09/22 10:56:25;;;;;;;18.67;13.90;;;13.60;99.90;;;;;;5078747;28;20517;-61
2021/09/22 10:58:55;;;;;;;17.80;11.53;;;13.60;99.90;;;;;;5080857;28;20439;-61
2021/09/22 11:01:41;;;;;;;19.87;13.53;;;13.70;99.90;;;;;;5085540;28;20561;-65
2021/09/22 11:04:07;;;;;;;18.30;13.57;;;13.60;99.90;;;;;;5095336;28;20938;-66
2021/09/22 11:06:45;;;;;;;20.20;14.68;;;13.60;99.90;;;;;;5093281;28;20448;-62
2021/09/22 11:09:17;;;;;;;18.20;13.50;;;13.60;99.90;;;;;;5091547;28;20686;-62
2021/09/22 11:12:03;;;;;;;22.40;15.67;;;13.60;99.90;;;;;;5086659;28;20440;-64
2021/09/22 11:14:31;;;;;;;21.10;15.73;;;13.60;99.90;;;;;;5090431;28;20443;-61
2021/09/22 11:16:59;;;;;;;23.40;16.20;;;13.60;99.90;;;;;;5098172;28;20472;-61
2021/09/22 11:19:26;;;;;;;25.90;18.27;;;13.60;99.90;;;;;;5092458;28;20444;-61
2021/09/22 11:21:52;;;;;;;23.50;16.07;;;13.60;99.90;;;;;;5081817;28;20539;-65
2021/09/22 11:24:21;;;;;;;21.07;13.90;;;13.60;99.90;;;;;;5085532;28;20452;-61
2021/09/22 11:26:58;;;;;;;18.67;14.37;;;13.60;99.90;;;;;;5068965;28;20895;-61
2021/09/22 11:30:01;;;;;;;20.80;14.57;;;13.60;99.90;;;;;;5085503;28;20448;-65
2021/09/22 11:32:37;;;;;;;21.27;14.53;;;13.60;99.90;;;;;;5040431;28;20455;-65
2021/09/22 11:35:15;;;;;;;20.90;13.97;;;13.70;99.90;;;;;;5086798;28;20452;-65
2021/09/22 11:37:44;;;;;;;22.63;14.97;;;13.70;99.90;;;;;;5080359;28;20472;-65
2021/09/22 11:40:10;;;;;;;19.00;14.20;;;13.80;99.90;;;;;;5089760;28;21173;-61
2021/09/22 11:42:41;;;;;;;24.00;14.33;;;13.80;99.90;;;;;;5085378;28;20476;-60
2021/09/22 11:45:08;;;;;;;22.60;13.57;;;13.80;99.90;;;;;;5095307;28;20435;-64
2021/09/22 11:47:34;;;;;;;20.93;14.30;;;13.90;99.90;;;;;;5092290;28;20462;-60
2021/09/22 11:50:00;;;;;;;16.97;13.60;;;13.90;99.90;;;;;;5093749;28;21143;-60
2021/09/22 11:52:26;;;;;;;18.93;14.57;;;14.00;99.90;;;;;;5086298;28;20259;-61
2021/09/22 11:54:59;;;;;;;17.20;12.67;;;14.10;99.90;;;;;;5071072;28;20199;-64
2021/09/22 11:57:28;;;;;;;17.43;13.90;;;14.20;99.90;;;;;;5086201;28;20444;-62
2021/09/22 11:59:56;;;;;;;16.60;12.03;;;14.30;99.90;;;;;;5087147;28;20526;-62
2021/09/22 12:02:26;;;;;;;17.03;12.43;;;14.30;99.90;;;;;;5089168;28;21059;-62
2021/09/22 12:04:52;;;;;;;17.13;12.20;;;14.30;99.90;;;;;;5089151;28;20837;-63
2021/09/22 12:07:28;;;;;;;19.50;12.73;;;14.30;99.90;;;;;;5087570;28;20455;-63
2021/09/22 12:10:04;;;;;;;18.50;13.30;;;14.40;99.90;;;;;;5090756;28;20464;-63
2021/09/22 12:12:34;;;;;;;16.07;12.03;;;14.40;99.90;;;;;;5091757;28;20461;-64
2021/09/22 12:15:00;;;;;;;16.70;12.40;;;14.40;99.90;;;;;;5094735;28;20450;-62
2021/09/22 12:17:35;;;;;;;14.77;11.43;;;14.40;99.90;;;;;;5068053;28;20462;-62
2021/09/22 12:20:03;;;;;;;17.13;12.80;;;14.40;99.90;;;;;;5054127;28;20544;-64
2021/09/22 12:22:33;;;;;;;15.87;11.17;;;14.50;99.90;;;;;;5063413;28;20430;-65
2021/09/22 12:25:00;;;;;;;16.40;11.40;;;14.50;99.90;;;;;;5066057;28;20438;-64
2021/09/22 12:27:28;;;;;;;13.90;11.50;;;14.60;99.90;;;;;;5053729;28;20991;-65
2021/09/22 12:29:57;;;;;;;15.07;12.37;;;14.60;99.90;;;;;;5061939;28;20450;-65
2021/09/22 12:32:28;;;;;;;14.43;11.20;;;14.70;99.90;;;;;;5054359;28;20524;-61
2021/09/22 12:34:56;;;;;;;16.20;12.77;;;14.70;99.90;;;;;;5048517;28;20445;-65
2021/09/22 12:37:29;;;;;;;15.10;12.13;;;14.80;99.90;;;;;;5058648;28;20654;-62
2021/09/22 12:40:04;;;;;;;14.40;10.87;;;14.80;99.90;;;;;;5067522;28;20433;-65